Madeline — WDF2406 — position and weather

sailwx.info

Track history (hours):
 
Tides and Currents Weather Stations Pressure Air Temp Water Temp Dewpoint Dewpoint Depression Visibility Wind Speed Wind Dir Waves Ship Positions

Madeline

Owner: Enterprise Marine Services, LLC, San Antonio, TX. More information available from US FCC via Universal Licensing System and Coast Guard Vessel Documentation Center.

Last reported at 2015-Jan-27 15:19 UTC. Time now 2015-Jan-29 06:20 UTC.
Position N 29°17' W 094°54'.

Length 30 m; draft 8 m.

Type: Tug. MMSI: 367350460.

Date/timePositionNaut miles runAvg speedWind from/ knotsBaromVisibWave heightAir tempDewpointWater temp
2015-Jan-27 15:19N 29°17' W 094°54'6 6.7
2015-Jan-27 14:28N 29°21' W 094°49'2 0.3
2015-Jan-27 08:29N 29°23' W 094°49'9 9.3
2015-Jan-27 07:34N 29°31' W 094°53'9 8.6
2015-Jan-27 06:32N 29°38' W 094°58'7 7.4
2015-Jan-27 05:33N 29°44' W 095°03'0 0.1
2015-Jan-27 04:32N 29°44' W 095°03'0 0.0
2015-Jan-27 03:33N 29°44' W 095°03'0 0.0
2015-Jan-27 02:33N 29°44' W 095°03'0 0.0
2015-Jan-27 01:33N 29°44' W 095°03'0 0.0
2015-Jan-27 00:33N 29°44' W 095°03'0 0.0
2015-Jan-26 23:33N 29°44' W 095°03'0 0.0
2015-Jan-26 22:33N 29°44' W 095°03'0 0.0
2015-Jan-26 21:33N 29°44' W 095°03'0 0.0
2015-Jan-26 20:33N 29°44' W 095°03'0 0.0
2015-Jan-26 19:33N 29°44' W 095°03'0 0.0
2015-Jan-26 18:33N 29°44' W 095°03'0 0.0
2015-Jan-26 17:33N 29°44' W 095°03'0 0.0
2015-Jan-26 16:33N 29°44' W 095°03'0 0.0
2015-Jan-26 15:33N 29°44' W 095°03'0 0.0
2015-Jan-26 14:33N 29°44' W 095°03'0 0.0
2015-Jan-26 13:33N 29°44' W 095°03'0 0.0
2015-Jan-26 12:33N 29°44' W 095°03'0 0.0
2015-Jan-26 11:33N 29°44' W 095°03'0 0.0
2015-Jan-26 10:33N 29°44' W 095°03'1 0.6
2015-Jan-26 08:32N 29°45' W 095°04'3 2.6
2015-Jan-26 07:32N 29°47' W 095°04'0 0.2
2015-Jan-26 05:19N 29°47' W 095°05'0 0.0
2015-Jan-25 23:30N 29°47' W 095°05'0 0.0
2015-Jan-25 21:22N 29°47' W 095°05'0 0.0
2015-Jan-25 20:16N 29°47' W 095°05'0 0.0
2015-Jan-25 19:32N 29°47' W 095°05'0 0.0
2015-Jan-25 18:16N 29°47' W 095°05'0 0.0
2015-Jan-25 17:32N 29°47' W 095°05'0 0.0
2015-Jan-25 16:31N 29°47' W 095°05'0 0.0
2015-Jan-25 15:32N 29°47' W 095°05'0 0.0
2015-Jan-25 14:32N 29°47' W 095°05'0 0.0
2015-Jan-25 13:33N 29°47' W 095°05'0 0.0
2015-Jan-25 12:32N 29°47' W 095°05'0 0.0
2015-Jan-25 11:33N 29°47' W 095°05'0 0.0
2015-Jan-25 10:33N 29°47' W 095°05'0 0.0
2015-Jan-25 09:33N 29°47' W 095°05'0 0.0
2015-Jan-25 08:33N 29°47' W 095°05'0 0.0
2015-Jan-25 07:33N 29°47' W 095°05'0 0.0
2015-Jan-25 06:33N 29°47' W 095°05'0 0.0
2015-Jan-25 05:33N 29°47' W 095°05'0 0.0
2015-Jan-25 03:16N 29°47' W 095°05'0 0.7
2015-Jan-25 02:33N 29°47' W 095°04'0 0.2
2015-Jan-24 23:30N 29°47' W 095°05'0 0.0
2015-Jan-24 22:33N 29°47' W 095°05'0 0.0
2015-Jan-24 21:28N 29°47' W 095°05'0 0.0
2015-Jan-24 20:29N 29°47' W 095°05'0 0.0
2015-Jan-24 19:23N 29°47' W 095°05'0 0.0
2015-Jan-24 18:33N 29°47' W 095°05'0 0.0
2015-Jan-24 17:33N 29°47' W 095°05'0 0.0
2015-Jan-24 16:32N 29°47' W 095°05'0 0.0
2015-Jan-24 15:33N 29°47' W 095°05'0 0.0
2015-Jan-24 14:33N 29°47' W 095°05'0 0.0
2015-Jan-24 13:33N 29°47' W 095°05'0 0.0
2015-Jan-24 09:12N 29°47' W 095°05'0 0.0
2015-Jan-24 03:16N 29°47' W 095°05'0 0.0
2015-Jan-24 02:30N 29°47' W 095°05'0 0.0
2015-Jan-24 01:28N 29°47' W 095°05'0 0.0
2015-Jan-23 23:33N 29°47' W 095°05'0 0.0
2015-Jan-23 22:31N 29°47' W 095°05'1 1.1
2015-Jan-23 21:33N 29°46' W 095°05'4 4.5
2015-Jan-23 20:33N 29°43' W 095°01'7 6.8
2015-Jan-23 19:33N 29°37' W 094°57'8 7.6
2015-Jan-23 18:33N 29°30' W 094°53'  
2015-Jan-20 01:32N 29°33' W 094°54'7 6.7
2015-Jan-20 00:33N 29°38' W 094°58'6 5.8
2015-Jan-19 23:33N 29°43' W 095°01'5 4.6
2015-Jan-19 22:34N 29°47' W 095°04'1 0.7
2015-Jan-19 21:34N 29°47' W 095°05'0 0.0
2015-Jan-19 20:33N 29°47' W 095°05'0 0.0
2015-Jan-19 19:29N 29°47' W 095°05'0 0.0
2015-Jan-19 18:33N 29°47' W 095°05'0 0.0
2015-Jan-19 17:20N 29°47' W 095°05'1 1.3
2015-Jan-19 16:34N 29°46' W 095°05'2 2.5
2015-Jan-19 15:33N 29°44' W 095°03'0 0.3
2015-Jan-19 14:33N 29°44' W 095°03'0 0.0
2015-Jan-19 13:33N 29°44' W 095°03'0 0.0
2015-Jan-19 11:25N 29°44' W 095°03'0 0.0
2015-Jan-19 10:31N 29°44' W 095°03'0 0.0
2015-Jan-19 09:27N 29°44' W 095°03'0 0.0
2015-Jan-19 07:21N 29°44' W 095°03'0 0.0
2015-Jan-19 06:33N 29°44' W 095°03'0 0.0
2015-Jan-19 05:33N 29°44' W 095°03'0 0.0
2015-Jan-19 04:06N 29°44' W 095°03'0 0.0
2015-Jan-19 03:33N 29°44' W 095°03'0 0.0
2015-Jan-19 02:31N 29°44' W 095°03'1 0.2
2015-Jan-18 23:33N 29°44' W 095°04'2 2.4
2015-Jan-18 22:33N 29°47' W 095°05'1 0.7
2015-Jan-18 21:33N 29°47' W 095°05'0 0.1
2015-Jan-18 20:33N 29°47' W 095°05'0 0.0
2015-Jan-18 19:33N 29°47' W 095°05'0 0.1
2015-Jan-18 18:27N 29°47' W 095°05'0 0.1
2015-Jan-18 17:33N 29°47' W 095°05'0 0.0
2015-Jan-18 16:33N 29°47' W 095°05'0 0.0
2015-Jan-18 15:33N 29°47' W 095°05'0 0.0
2015-Jan-18 14:33N 29°47' W 095°05'0 0.0
2015-Jan-18 13:33N 29°47' W 095°05'0 0.0
2015-Jan-18 12:33N 29°47' W 095°05'0 0.0
2015-Jan-18 11:34N 29°47' W 095°05'0 0.0
2015-Jan-18 10:33N 29°47' W 095°05'0 0.0
2015-Jan-18 09:33N 29°47' W 095°05'0 0.0
2015-Jan-18 08:33N 29°47' W 095°05'0 0.0
2015-Jan-18 07:34N 29°47' W 095°05'0 0.0
2015-Jan-18 06:34N 29°47' W 095°05'0 0.0
2015-Jan-18 05:33N 29°47' W 095°05'0 0.0
2015-Jan-18 04:33N 29°47' W 095°05'0 0.0
2015-Jan-18 03:33N 29°47' W 095°05'0 0.0
2015-Jan-18 02:33N 29°47' W 095°05'0 0.0
2015-Jan-18 01:33N 29°47' W 095°05'0 0.0
2015-Jan-18 00:32N 29°47' W 095°05'0 0.0
2015-Jan-17 23:33N 29°47' W 095°05'0 0.0
2015-Jan-17 22:33N 29°47' W 095°05'0 0.0
2015-Jan-17 21:33N 29°47' W 095°05'0 0.0
2015-Jan-17 20:34N 29°47' W 095°05'0 0.0
2015-Jan-17 19:33N 29°47' W 095°05'0 0.0
2015-Jan-17 18:33N 29°47' W 095°05'0 0.0
2015-Jan-17 17:34N 29°47' W 095°05'0 0.0
2015-Jan-17 16:33N 29°47' W 095°05'0 0.0
2015-Jan-17 15:34N 29°47' W 095°05'  
Track history (hours):
 
Tides and Currents Weather Stations Pressure Air Temp Water Temp Dewpoint Dewpoint Depression Visibility Wind Speed Wind Dir Waves Ship Positions

Madeline

Owner: Enterprise Marine Services, LLC, San Antonio, TX. More information available from US FCC via Universal Licensing System and Coast Guard Vessel Documentation Center.

Last reported at 2015-Jan-27 15:19 UTC. Time now 2015-Jan-29 06:20 UTC.
Position N 29°17' W 094°54'.

Length 30 m; draft 8 m.

Type: Tug. MMSI: 367350460.

Date/timePositionNaut miles runAvg speedWind from/ knotsBaromVisibWave heightAir tempDewpointWater temp
2015-Jan-27 15:19N 29°17' W 094°54'6 6.7
2015-Jan-27 14:28N 29°21' W 094°49'2 0.3
2015-Jan-27 08:29N 29°23' W 094°49'9 9.3
2015-Jan-27 07:34N 29°31' W 094°53'9 8.6
2015-Jan-27 06:32N 29°38' W 094°58'7 7.4
2015-Jan-27 05:33N 29°44' W 095°03'0 0.1
2015-Jan-27 04:32N 29°44' W 095°03'0 0.0
2015-Jan-27 03:33N 29°44' W 095°03'0 0.0
2015-Jan-27 02:33N 29°44' W 095°03'0 0.0
2015-Jan-27 01:33N 29°44' W 095°03'0 0.0
2015-Jan-27 00:33N 29°44' W 095°03'0 0.0
2015-Jan-26 23:33N 29°44' W 095°03'0 0.0
2015-Jan-26 22:33N 29°44' W 095°03'0 0.0
2015-Jan-26 21:33N 29°44' W 095°03'0 0.0
2015-Jan-26 20:33N 29°44' W 095°03'0 0.0
2015-Jan-26 19:33N 29°44' W 095°03'0 0.0
2015-Jan-26 18:33N 29°44' W 095°03'0 0.0
2015-Jan-26 17:33N 29°44' W 095°03'0 0.0
2015-Jan-26 16:33N 29°44' W 095°03'0 0.0
2015-Jan-26 15:33N 29°44' W 095°03'0 0.0
2015-Jan-26 14:33N 29°44' W 095°03'0 0.0
2015-Jan-26 13:33N 29°44' W 095°03'0 0.0
2015-Jan-26 12:33N 29°44' W 095°03'0 0.0
2015-Jan-26 11:33N 29°44' W 095°03'0 0.0
2015-Jan-26 10:33N 29°44' W 095°03'1 0.6
2015-Jan-26 08:32N 29°45' W 095°04'3 2.6
2015-Jan-26 07:32N 29°47' W 095°04'0 0.2
2015-Jan-26 05:19N 29°47' W 095°05'0 0.0
2015-Jan-25 23:30N 29°47' W 095°05'0 0.0
2015-Jan-25 21:22N 29°47' W 095°05'0 0.0
2015-Jan-25 20:16N 29°47' W 095°05'0 0.0
2015-Jan-25 19:32N 29°47' W 095°05'0 0.0
2015-Jan-25 18:16N 29°47' W 095°05'0 0.0
2015-Jan-25 17:32N 29°47' W 095°05'0 0.0
2015-Jan-25 16:31N 29°47' W 095°05'0 0.0
2015-Jan-25 15:32N 29°47' W 095°05'0 0.0
2015-Jan-25 14:32N 29°47' W 095°05'0 0.0
2015-Jan-25 13:33N 29°47' W 095°05'0 0.0
2015-Jan-25 12:32N 29°47' W 095°05'0 0.0
2015-Jan-25 11:33N 29°47' W 095°05'0 0.0
2015-Jan-25 10:33N 29°47' W 095°05'0 0.0
2015-Jan-25 09:33N 29°47' W 095°05'0 0.0
2015-Jan-25 08:33N 29°47' W 095°05'0 0.0
2015-Jan-25 07:33N 29°47' W 095°05'0 0.0
2015-Jan-25 06:33N 29°47' W 095°05'0 0.0
2015-Jan-25 05:33N 29°47' W 095°05'0 0.0
2015-Jan-25 03:16N 29°47' W 095°05'0 0.7
2015-Jan-25 02:33N 29°47' W 095°04'0 0.2
2015-Jan-24 23:30N 29°47' W 095°05'0 0.0
2015-Jan-24 22:33N 29°47' W 095°05'0 0.0
2015-Jan-24 21:28N 29°47' W 095°05'0 0.0
2015-Jan-24 20:29N 29°47' W 095°05'0 0.0
2015-Jan-24 19:23N 29°47' W 095°05'0 0.0
2015-Jan-24 18:33N 29°47' W 095°05'0 0.0
2015-Jan-24 17:33N 29°47' W 095°05'0 0.0
2015-Jan-24 16:32N 29°47' W 095°05'0 0.0
2015-Jan-24 15:33N 29°47' W 095°05'0 0.0
2015-Jan-24 14:33N 29°47' W 095°05'0 0.0
2015-Jan-24 13:33N 29°47' W 095°05'0 0.0
2015-Jan-24 09:12N 29°47' W 095°05'0 0.0
2015-Jan-24 03:16N 29°47' W 095°05'0 0.0
2015-Jan-24 02:30N 29°47' W 095°05'0 0.0
2015-Jan-24 01:28N 29°47' W 095°05'0 0.0
2015-Jan-23 23:33N 29°47' W 095°05'0 0.0
2015-Jan-23 22:31N 29°47' W 095°05'1 1.1
2015-Jan-23 21:33N 29°46' W 095°05'4 4.5
2015-Jan-23 20:33N 29°43' W 095°01'7 6.8
2015-Jan-23 19:33N 29°37' W 094°57'8 7.6
2015-Jan-23 18:33N 29°30' W 094°53'  
2015-Jan-20 01:32N 29°33' W 094°54'7 6.7
2015-Jan-20 00:33N 29°38' W 094°58'6 5.8
2015-Jan-19 23:33N 29°43' W 095°01'5 4.6
2015-Jan-19 22:34N 29°47' W 095°04'1 0.7
2015-Jan-19 21:34N 29°47' W 095°05'0 0.0
2015-Jan-19 20:33N 29°47' W 095°05'0 0.0
2015-Jan-19 19:29N 29°47' W 095°05'0 0.0
2015-Jan-19 18:33N 29°47' W 095°05'0 0.0
2015-Jan-19 17:20N 29°47' W 095°05'1 1.3
2015-Jan-19 16:34N 29°46' W 095°05'2 2.5
2015-Jan-19 15:33N 29°44' W 095°03'0 0.3
2015-Jan-19 14:33N 29°44' W 095°03'0 0.0
2015-Jan-19 13:33N 29°44' W 095°03'0 0.0
2015-Jan-19 11:25N 29°44' W 095°03'0 0.0
2015-Jan-19 10:31N 29°44' W 095°03'0 0.0
2015-Jan-19 09:27N 29°44' W 095°03'0 0.0
2015-Jan-19 07:21N 29°44' W 095°03'0 0.0
2015-Jan-19 06:33N 29°44' W 095°03'0 0.0
2015-Jan-19 05:33N 29°44' W 095°03'0 0.0
2015-Jan-19 04:06N 29°44' W 095°03'0 0.0
2015-Jan-19 03:33N 29°44' W 095°03'0 0.0
2015-Jan-19 02:31N 29°44' W 095°03'1 0.2
2015-Jan-18 23:33N 29°44' W 095°04'2 2.4
2015-Jan-18 22:33N 29°47' W 095°05'1 0.7
2015-Jan-18 21:33N 29°47' W 095°05'0 0.1
2015-Jan-18 20:33N 29°47' W 095°05'0 0.0
2015-Jan-18 19:33N 29°47' W 095°05'0 0.1
2015-Jan-18 18:27N 29°47' W 095°05'0 0.1
2015-Jan-18 17:33N 29°47' W 095°05'0 0.0
2015-Jan-18 16:33N 29°47' W 095°05'0 0.0
2015-Jan-18 15:33N 29°47' W 095°05'0 0.0
2015-Jan-18 14:33N 29°47' W 095°05'0 0.0
2015-Jan-18 13:33N 29°47' W 095°05'0 0.0
2015-Jan-18 12:33N 29°47' W 095°05'0 0.0
2015-Jan-18 11:34N 29°47' W 095°05'0 0.0
2015-Jan-18 10:33N 29°47' W 095°05'0 0.0
2015-Jan-18 09:33N 29°47' W 095°05'0 0.0
2015-Jan-18 08:33N 29°47' W 095°05'0 0.0
2015-Jan-18 07:34N 29°47' W 095°05'0 0.0
2015-Jan-18 06:34N 29°47' W 095°05'0 0.0
2015-Jan-18 05:33N 29°47' W 095°05'0 0.0
2015-Jan-18 04:33N 29°47' W 095°05'0 0.0
2015-Jan-18 03:33N 29°47' W 095°05'0 0.0
2015-Jan-18 02:33N 29°47' W 095°05'0 0.0
2015-Jan-18 01:33N 29°47' W 095°05'0 0.0
2015-Jan-18 00:32N 29°47' W 095°05'0 0.0
2015-Jan-17 23:33N 29°47' W 095°05'0 0.0
2015-Jan-17 22:33N 29°47' W 095°05'0 0.0
2015-Jan-17 21:33N 29°47' W 095°05'0 0.0
2015-Jan-17 20:34N 29°47' W 095°05'0 0.0
2015-Jan-17 19:33N 29°47' W 095°05'0 0.0
2015-Jan-17 18:33N 29°47' W 095°05'0 0.0
2015-Jan-17 17:34N 29°47' W 095°05'0 0.0
2015-Jan-17 16:33N 29°47' W 095°05'0 0.0
2015-Jan-17 15:34N 29°47' W 095°05'  

Dump ship's entire track history